sensor_id;sensor_type;location;lat;lon;timestamp;temperature;humidity
34873;DHT22;21084;51.098;14.506;2023-12-20T00:01:53;5.30;99.90
34873;DHT22;21084;51.098;14.506;2023-12-20T00:04:23;5.20;99.90
34873;DHT22;21084;51.098;14.506;2023-12-20T00:06:51;5.20;99.90
34873;DHT22;21084;51.098;14.506;2023-12-20T00:09:20;5.20;99.90
34873;DHT22;21084;51.098;14.506;2023-12-20T00:11:48;5.20;99.90
34873;DHT22;21084;51.098;14.506;2023-12-20T00:14:16;5.20;99.90
34873;DHT22;21084;51.098;14.506;2023-12-20T00:16:45;5.10;99.90
34873;DHT22;21084;51.098;14.506;2023-12-20T00:19:13;5.20;99.90
34873;DHT22;21084;51.098;14.506;2023-12-20T00:21:43;5.10;99.90
34873;DHT22;21084;51.098;14.506;2023-12-20T00:24:11;5.10;99.90
34873;DHT22;21084;51.098;14.506;2023-12-20T00:26:39;5.10;99.90
34873;DHT22;21084;51.098;14.506;2023-12-20T00:29:07;5.10;99.90
34873;DHT22;21084;51.098;14.506;2023-12-20T00:31:36;5.00;99.90
34873;DHT22;21084;51.098;14.506;2023-12-20T00:34:04;5.00;99.90
34873;DHT22;21084;51.098;14.506;2023-12-20T00:36:33;5.00;99.90
34873;DHT22;21084;51.098;14.506;2023-12-20T00:39:03;5.00;99.90
34873;DHT22;21084;51.098;14.506;2023-12-20T00:41:31;5.00;99.90
34873;DHT22;21084;51.098;14.506;2023-12-20T00:43:59;5.00;99.90
34873;DHT22;21084;51.098;14.506;2023-12-20T00:46:28;5.00;99.90
34873;DHT22;21084;51.098;14.506;2023-12-20T00:48:56;4.90;99.90
34873;DHT22;21084;51.098;14.506;2023-12-20T00:51:24;4.90;99.90
34873;DHT22;21084;51.098;14.506;2023-12-20T00:53:53;4.90;99.90
34873;DHT22;21084;51.098;14.506;2023-12-20T00:56:23;4.90;99.90
34873;DHT22;21084;51.098;14.506;2023-12-20T00:58:51;4.90;99.90
34873;DHT22;21084;51.098;14.506;2023-12-20T01:01:20;4.90;99.90
34873;DHT22;21084;51.098;14.506;2023-12-20T01:03:49;4.90;99.90
34873;DHT22;21084;51.098;14.506;2023-12-20T01:06:18;4.90;99.90
34873;DHT22;21084;51.098;14.506;2023-12-20T01:08:46;4.90;99.90
34873;DHT22;21084;51.098;14.506;2023-12-20T01:11:15;4.90;99.90
34873;DHT22;21084;51.098;14.506;2023-12-20T01:13:44;4.80;99.90
34873;DHT22;21084;51.098;14.506;2023-12-20T01:16:13;4.80;99.90
34873;DHT22;21084;51.098;14.506;2023-12-20T01:18:41;4.80;99.90
34873;DHT22;21084;51.098;14.506;2023-12-20T01:21:10;4.80;99.90
34873;DHT22;21084;51.098;14.506;2023-12-20T01:23:38;4.80;99.90
34873;DHT22;21084;51.098;14.506;2023-12-20T01:26:06;4.80;99.90
34873;DHT22;21084;51.098;14.506;2023-12-20T01:28:35;4.70;99.90
34873;DHT22;21084;51.098;14.506;2023-12-20T01:31:04;4.70;99.90
34873;DHT22;21084;51.098;14.506;2023-12-20T01:33:35;4.70;99.90
34873;DHT22;21084;51.098;14.506;2023-12-20T01:36:03;4.70;99.90
34873;DHT22;21084;51.098;14.506;2023-12-20T01:38:32;4.70;99.90
34873;DHT22;21084;51.098;14.506;2023-12-20T01:41:00;4.70;99.90
34873;DHT22;21084;51.098;14.506;2023-12-20T01:43:29;4.60;99.90
34873;DHT22;21084;51.098;14.506;2023-12-20T01:46:07;4.60;99.90
34873;DHT22;21084;51.098;14.506;2023-12-20T01:48:36;4.60;99.90
34873;DHT22;21084;51.098;14.506;2023-12-20T01:51:05;4.50;99.90
34873;DHT22;21084;51.098;14.506;2023-12-20T01:53:33;4.50;99.90
34873;DHT22;21084;51.098;14.506;2023-12-20T01:56:02;4.50;99.90
34873;DHT22;21084;51.098;14.506;2023-12-20T01:58:30;4.50;99.90
34873;DHT22;21084;51.098;14.506;2023-12-20T02:00:59;4.40;99.90
34873;DHT22;21084;51.098;14.506;2023-12-20T02:03:29;4.40;99.90
34873;DHT22;21084;51.098;14.506;2023-12-20T02:05:57;4.40;99.90
34873;DHT22;21084;51.098;14.506;2023-12-20T02:08:25;4.30;99.90
34873;DHT22;21084;51.098;14.506;2023-12-20T02:10:54;4.30;99.90
34873;DHT22;21084;51.098;14.506;2023-12-20T02:13:23;4.30;99.90
34873;DHT22;21084;51.098;14.506;2023-12-20T02:15:52;4.30;99.90
34873;DHT22;21084;51.098;14.506;2023-12-20T02:18:20;4.20;99.90
34873;DHT22;21084;51.098;14.506;2023-12-20T02:20:50;4.20;99.90
34873;DHT22;21084;51.098;14.506;2023-12-20T02:23:21;4.20;99.90
34873;DHT22;21084;51.098;14.506;2023-12-20T02:25:49;4.20;99.90
34873;DHT22;21084;51.098;14.506;2023-12-20T02:28:18;4.20;99.90
34873;DHT22;21084;51.098;14.506;2023-12-20T02:30:46;4.20;99.90
34873;DHT22;21084;51.098;14.506;2023-12-20T02:33:16;4.20;99.90
34873;DHT22;21084;51.098;14.506;2023-12-20T02:35:45;4.20;99.90
34873;DHT22;21084;51.098;14.506;2023-12-20T02:38:14;4.20;99.90
34873;DHT22;21084;51.098;14.506;2023-12-20T02:40:44;4.20;99.90
34873;DHT22;21084;51.098;14.506;2023-12-20T02:43:16;4.20;99.90
34873;DHT22;21084;51.098;14.506;2023-12-20T02:45:44;4.10;99.90
34873;DHT22;21084;51.098;14.506;2023-12-20T02:48:12;4.10;99.90
34873;DHT22;21084;51.098;14.506;2023-12-20T02:50:41;4.10;99.90
34873;DHT22;21084;51.098;14.506;2023-12-20T02:53:09;4.10;99.90
34873;DHT22;21084;51.098;14.506;2023-12-20T02:55:38;4.10;99.90
34873;DHT22;21084;51.098;14.506;2023-12-20T02:58:07;4.10;99.90
34873;DHT22;21084;51.098;14.506;2023-12-20T03:00:36;4.10;99.90
34873;DHT22;21084;51.098;14.506;2023-12-20T03:03:04;4.10;99.90
34873;DHT22;21084;51.098;14.506;2023-12-20T03:05:32;4.10;99.90
34873;DHT22;21084;51.098;14.506;2023-12-20T03:08:01;4.10;99.90
34873;DHT22;21084;51.098;14.506;2023-12-20T03:10:29;4.10;99.90
34873;DHT22;21084;51.098;14.506;2023-12-20T03:12:57;4.10;99.90
34873;DHT22;21084;51.098;14.506;2023-12-20T03:15:27;4.10;99.90
34873;DHT22;21084;51.098;14.506;2023-12-20T03:17:56;4.00;99.90
34873;DHT22;21084;51.098;14.506;2023-12-20T03:20:26;4.00;99.90
34873;DHT22;21084;51.098;14.506;2023-12-20T03:22:54;4.10;99.90
34873;DHT22;21084;51.098;14.506;2023-12-20T03:25:22;4.10;99.90
34873;DHT22;21084;51.098;14.506;2023-12-20T03:27:51;4.00;99.90
34873;DHT22;21084;51.098;14.506;2023-12-20T03:30:21;4.10;99.90
34873;DHT22;21084;51.098;14.506;2023-12-20T03:32:51;4.00;99.90
34873;DHT22;21084;51.098;14.506;2023-12-20T03:35:19;4.00;99.90
34873;DHT22;21084;51.098;14.506;2023-12-20T03:37:46;4.00;99.90
34873;DHT22;21084;51.098;14.506;2023-12-20T03:40:14;4.00;99.90
34873;DHT22;21084;51.098;14.506;2023-12-20T03:42:43;4.00;99.90
34873;DHT22;21084;51.098;14.506;2023-12-20T03:45:11;4.00;99.90
34873;DHT22;21084;51.098;14.506;2023-12-20T03:47:39;4.00;99.90
34873;DHT22;21084;51.098;14.506;2023-12-20T03:50:09;4.00;99.90
34873;DHT22;21084;51.098;14.506;2023-12-20T03:52:38;4.00;99.90
34873;DHT22;21084;51.098;14.506;2023-12-20T03:55:07;4.00;99.90
34873;DHT22;21084;51.098;14.506;2023-12-20T03:57:35;4.00;99.90
34873;DHT22;21084;51.098;14.506;2023-12-20T04:00:04;4.00;99.90
34873;DHT22;21084;51.098;14.506;2023-12-20T04:02:36;4.00;99.90
34873;DHT22;21084;51.098;14.506;2023-12-20T04:05:04;4.00;99.90
34873;DHT22;21084;51.098;14.506;2023-12-20T04:07:34;4.00;99.90
34873;DHT22;21084;51.098;14.506;2023-12-20T04:10:03;4.00;99.90
34873;DHT22;21084;51.098;14.506;2023-12-20T04:12:32;4.00;99.90
34873;DHT22;21084;51.098;14.506;2023-12-20T04:15:00;4.00;99.90
34873;DHT22;21084;51.098;14.506;2023-12-20T04:17:30;4.00;99.90
34873;DHT22;21084;51.098;14.506;2023-12-20T04:19:58;4.00;99.90
34873;DHT22;21084;51.098;14.506;2023-12-20T04:22:27;4.00;99.90
34873;DHT22;21084;51.098;14.506;2023-12-20T04:24:56;4.00;99.90
34873;DHT22;21084;51.098;14.506;2023-12-20T04:27:25;4.00;99.90
34873;DHT22;21084;51.098;14.506;2023-12-20T04:29:53;4.00;99.90
34873;DHT22;21084;51.098;14.506;2023-12-20T04:32:21;4.00;99.90
34873;DHT22;21084;51.098;14.506;2023-12-20T04:34:49;4.00;99.90
34873;DHT22;21084;51.098;14.506;2023-12-20T04:37:17;4.00;99.90
34873;DHT22;21084;51.098;14.506;2023-12-20T04:39:46;4.00;99.90
34873;DHT22;21084;51.098;14.506;2023-12-20T04:42:16;4.00;99.90
34873;DHT22;21084;51.098;14.506;2023-12-20T04:44:44;4.00;99.90
34873;DHT22;21084;51.098;14.506;2023-12-20T04:47:12;4.00;99.90
34873;DHT22;21084;51.098;14.506;2023-12-20T04:49:40;4.00;99.90
34873;DHT22;21084;51.098;14.506;2023-12-20T04:52:09;4.00;99.90
34873;DHT22;21084;51.098;14.506;2023-12-20T04:54:37;4.00;99.90
34873;DHT22;21084;51.098;14.506;2023-12-20T04:57:09;4.10;99.90
34873;DHT22;21084;51.098;14.506;2023-12-20T04:59:39;4.10;99.90
34873;DHT22;21084;51.098;14.506;2023-12-20T05:02:08;4.10;99.90
34873;DHT22;21084;51.098;14.506;2023-12-20T05:04:36;4.10;99.90
34873;DHT22;21084;51.098;14.506;2023-12-20T05:07:04;4.00;99.90
34873;DHT22;21084;51.098;14.506;2023-12-20T05:09:33;4.10;99.90
34873;DHT22;21084;51.098;14.506;2023-12-20T05:12:02;4.10;99.90
34873;DHT22;21084;51.098;14.506;2023-12-20T05:14:30;4.10;99.90
34873;DHT22;21084;51.098;14.506;2023-12-20T05:17:00;4.10;99.90
34873;DHT22;21084;51.098;14.506;2023-12-20T05:19:28;4.10;99.90
34873;DHT22;21084;51.098;14.506;2023-12-20T05:21:56;4.10;99.90
34873;DHT22;21084;51.098;14.506;2023-12-20T05:24:25;4.10;99.90
34873;DHT22;21084;51.098;14.506;2023-12-20T05:26:53;4.10;99.90
34873;DHT22;21084;51.098;14.506;2023-12-20T05:29:22;4.10;99.90
34873;DHT22;21084;51.098;14.506;2023-12-20T05:31:50;4.10;99.90
34873;DHT22;21084;51.098;14.506;2023-12-20T05:34:20;4.10;99.90
34873;DHT22;21084;51.098;14.506;2023-12-20T05:36:49;4.10;99.90
34873;DHT22;21084;51.098;14.506;2023-12-20T05:39:17;4.10;99.90
34873;DHT22;21084;51.098;14.506;2023-12-20T05:41:46;4.10;99.90
34873;DHT22;21084;51.098;14.506;2023-12-20T05:44:15;4.10;99.90
34873;DHT22;21084;51.098;14.506;2023-12-20T05:46:43;4.10;99.90
34873;DHT22;21084;51.098;14.506;2023-12-20T05:49:12;4.10;99.90
34873;DHT22;21084;51.098;14.506;2023-12-20T05:51:42;4.10;99.90
34873;DHT22;21084;51.098;14.506;2023-12-20T05:54:10;4.10;99.90
34873;DHT22;21084;51.098;14.506;2023-12-20T05:56:38;4.20;99.90
34873;DHT22;21084;51.098;14.506;2023-12-20T05:59:07;4.20;99.90
34873;DHT22;21084;51.098;14.506;2023-12-20T06:01:35;4.20;99.90
34873;DHT22;21084;51.098;14.506;2023-12-20T06:04:03;4.20;99.90
34873;DHT22;21084;51.098;14.506;2023-12-20T06:06:31;4.20;99.90
34873;DHT22;21084;51.098;14.506;2023-12-20T06:09:01;4.20;99.90
34873;DHT22;21084;51.098;14.506;2023-12-20T06:11:31;4.20;99.90
34873;DHT22;21084;51.098;14.506;2023-12-20T06:13:59;4.20;99.90
34873;DHT22;21084;51.098;14.506;2023-12-20T06:16:27;4.20;99.90
34873;DHT22;21084;51.098;14.506;2023-12-20T06:18:55;4.20;99.90
34873;DHT22;21084;51.098;14.506;2023-12-20T06:21:24;4.20;99.90
34873;DHT22;21084;51.098;14.506;2023-12-20T06:23:52;4.20;99.90
34873;DHT22;21084;51.098;14.506;2023-12-20T06:26:22;4.20;99.90
34873;DHT22;21084;51.098;14.506;2023-12-20T06:28:50;4.20;99.90
34873;DHT22;21084;51.098;14.506;2023-12-20T06:31:18;4.20;99.90
34873;DHT22;21084;51.098;14.506;2023-12-20T06:33:47;4.30;99.90
34873;DHT22;21084;51.098;14.506;2023-12-20T06:36:16;4.20;99.90
34873;DHT22;21084;51.098;14.506;2023-12-20T06:38:45;4.20;99.90
34873;DHT22;21084;51.098;14.506;2023-12-20T06:41:13;4.20;99.90
34873;DHT22;21084;51.098;14.506;2023-12-20T06:43:44;4.20;99.90
34873;DHT22;21084;51.098;14.506;2023-12-20T06:46:16;4.20;99.90
34873;DHT22;21084;51.098;14.506;2023-12-20T06:48:45;4.20;99.90
34873;DHT22;21084;51.098;14.506;2023-12-20T06:51:14;4.20;99.90
34873;DHT22;21084;51.098;14.506;2023-12-20T06:53:43;4.20;99.90
34873;DHT22;21084;51.098;14.506;2023-12-20T06:56:11;4.20;99.90
34873;DHT22;21084;51.098;14.506;2023-12-20T06:58:46;4.20;99.90
34873;DHT22;21084;51.098;14.506;2023-12-20T07:01:14;4.20;99.90
34873;DHT22;21084;51.098;14.506;2023-12-20T07:03:43;4.20;99.90
34873;DHT22;21084;51.098;14.506;2023-12-20T07:06:11;4.20;99.90
34873;DHT22;21084;51.098;14.506;2023-12-20T07:08:40;4.20;99.90
34873;DHT22;21084;51.098;14.506;2023-12-20T07:11:09;4.20;99.90
34873;DHT22;21084;51.098;14.506;2023-12-20T07:13:37;4.20;99.90
34873;DHT22;21084;51.098;14.506;2023-12-20T07:16:07;4.20;99.90
34873;DHT22;21084;51.098;14.506;2023-12-20T07:18:35;4.20;99.90
34873;DHT22;21084;51.098;14.506;2023-12-20T07:21:04;4.20;99.90
34873;DHT22;21084;51.098;14.506;2023-12-20T07:23:34;4.20;99.90
34873;DHT22;21084;51.098;14.506;2023-12-20T07:26:03;4.20;99.90
34873;DHT22;21084;51.098;14.506;2023-12-20T07:28:32;4.20;99.90
34873;DHT22;21084;51.098;14.506;2023-12-20T07:31:00;4.20;99.90
34873;DHT22;21084;51.098;14.506;2023-12-20T07:33:30;4.20;99.90
34873;DHT22;21084;51.098;14.506;2023-12-20T07:36:06;4.20;99.90
34873;DHT22;21084;51.098;14.506;2023-12-20T07:38:34;4.20;99.90
34873;DHT22;21084;51.098;14.506;2023-12-20T07:41:03;4.20;99.90
34873;DHT22;21084;51.098;14.506;2023-12-20T07:43:31;4.30;99.90
34873;DHT22;21084;51.098;14.506;2023-12-20T07:46:03;4.30;99.90
34873;DHT22;21084;51.098;14.506;2023-12-20T07:48:33;4.30;99.90
34873;DHT22;21084;51.098;14.506;2023-12-20T07:51:01;4.30;99.90
34873;DHT22;21084;51.098;14.506;2023-12-20T07:53:30;4.30;99.90
34873;DHT22;21084;51.098;14.506;2023-12-20T07:55:58;4.30;99.90
34873;DHT22;21084;51.098;14.506;2023-12-20T07:58:26;4.30;99.90
34873;DHT22;21084;51.098;14.506;2023-12-20T08:01:16;4.30;99.90
34873;DHT22;21084;51.098;14.506;2023-12-20T08:03:47;4.30;99.90
34873;DHT22;21084;51.098;14.506;2023-12-20T08:06:16;4.30;99.90
34873;DHT22;21084;51.098;14.506;2023-12-20T08:08:45;4.30;99.90
34873;DHT22;21084;51.098;14.506;2023-12-20T08:11:24;4.20;99.90
34873;DHT22;21084;51.098;14.506;2023-12-20T08:13:53;4.20;99.90
34873;DHT22;21084;51.098;14.506;2023-12-20T08:16:21;4.20;99.90
34873;DHT22;21084;51.098;14.506;2023-12-20T08:18:50;4.20;99.90
34873;DHT22;21084;51.098;14.506;2023-12-20T08:21:19;4.20;99.90
34873;DHT22;21084;51.098;14.506;2023-12-20T08:23:49;4.20;99.90
34873;DHT22;21084;51.098;14.506;2023-12-20T08:26:18;4.20;99.90
34873;DHT22;21084;51.098;14.506;2023-12-20T08:28:47;4.20;99.90
34873;DHT22;21084;51.098;14.506;2023-12-20T08:31:15;4.20;99.90
34873;DHT22;21084;51.098;14.506;2023-12-20T08:33:44;4.20;99.90
34873;DHT22;21084;51.098;14.506;2023-12-20T08:36:14;4.30;99.90
34873;DHT22;21084;51.098;14.506;2023-12-20T08:38:44;4.20;99.90
34873;DHT22;21084;51.098;14.506;2023-12-20T08:41:12;4.30;99.90
34873;DHT22;21084;51.098;14.506;2023-12-20T08:43:41;4.30;99.90
34873;DHT22;21084;51.098;14.506;2023-12-20T08:46:09;4.40;99.90
34873;DHT22;21084;51.098;14.506;2023-12-20T08:48:39;4.50;99.90
34873;DHT22;21084;51.098;14.506;2023-12-20T08:51:07;4.60;99.90
34873;DHT22;21084;51.098;14.506;2023-12-20T08:53:37;4.70;99.90
34873;DHT22;21084;51.098;14.506;2023-12-20T08:56:06;4.80;99.90
34873;DHT22;21084;51.098;14.506;2023-12-20T08:58:35;4.80;99.90
34873;DHT22;21084;51.098;14.506;2023-12-20T09:01:03;4.80;99.90
34873;DHT22;21084;51.098;14.506;2023-12-20T09:03:32;4.80;99.90
34873;DHT22;21084;51.098;14.506;2023-12-20T09:06:00;4.70;99.90
34873;DHT22;21084;51.098;14.506;2023-12-20T09:08:29;4.70;99.90
34873;DHT22;21084;51.098;14.506;2023-12-20T09:10:59;4.70;99.90
34873;DHT22;21084;51.098;14.506;2023-12-20T09:13:28;4.80;99.90
34873;DHT22;21084;51.098;14.506;2023-12-20T09:15:56;4.80;99.90
34873;DHT22;21084;51.098;14.506;2023-12-20T09:18:24;4.80;99.90
34873;DHT22;21084;51.098;14.506;2023-12-20T09:20:56;4.90;99.90
34873;DHT22;21084;51.098;14.506;2023-12-20T09:23:24;4.90;99.90
34873;DHT22;21084;51.098;14.506;2023-12-20T09:25:53;4.90;99.90
34873;DHT22;21084;51.098;14.506;2023-12-20T09:28:25;5.00;99.90
34873;DHT22;21084;51.098;14.506;2023-12-20T09:30:54;5.10;99.90
34873;DHT22;21084;51.098;14.506;2023-12-20T09:33:22;5.10;99.90
34873;DHT22;21084;51.098;14.506;2023-12-20T09:35:52;5.10;99.90
34873;DHT22;21084;51.098;14.506;2023-12-20T09:38:21;5.10;99.90
34873;DHT22;21084;51.098;14.506;2023-12-20T09:40:49;5.10;99.90
34873;DHT22;21084;51.098;14.506;2023-12-20T09:43:18;5.20;99.90
34873;DHT22;21084;51.098;14.506;2023-12-20T09:45:49;5.30;99.90
34873;DHT22;21084;51.098;14.506;2023-12-20T09:48:21;5.30;99.90
34873;DHT22;21084;51.098;14.506;2023-12-20T09:50:49;5.40;99.90
34873;DHT22;21084;51.098;14.506;2023-12-20T09:53:20;5.40;99.90
34873;DHT22;21084;51.098;14.506;2023-12-20T09:55:50;5.40;99.90
34873;DHT22;21084;51.098;14.506;2023-12-20T09:58:19;5.30;99.90
34873;DHT22;21084;51.098;14.506;2023-12-20T10:00:49;5.30;99.90
34873;DHT22;21084;51.098;14.506;2023-12-20T10:03:17;5.30;99.90
34873;DHT22;21084;51.098;14.506;2023-12-20T10:05:46;5.20;99.90
34873;DHT22;21084;51.098;14.506;2023-12-20T10:08:16;5.20;99.90
34873;DHT22;21084;51.098;14.506;2023-12-20T10:10:45;5.30;99.90
34873;DHT22;21084;51.098;14.506;2023-12-20T10:13:14;5.50;99.90
34873;DHT22;21084;51.098;14.506;2023-12-20T10:15:43;5.60;99.90
34873;DHT22;21084;51.098;14.506;2023-12-20T10:18:13;5.80;99.90
34873;DHT22;21084;51.098;14.506;2023-12-20T10:20:41;6.00;99.90
34873;DHT22;21084;51.098;14.506;2023-12-20T10:23:10;6.10;99.90
34873;DHT22;21084;51.098;14.506;2023-12-20T10:25:39;6.00;99.90
34873;DHT22;21084;51.098;14.506;2023-12-20T10:28:09;5.90;99.90
34873;DHT22;21084;51.098;14.506;2023-12-20T10:30:38;5.90;99.90
34873;DHT22;21084;51.098;14.506;2023-12-20T10:33:06;5.80;99.90
34873;DHT22;21084;51.098;14.506;2023-12-20T10:35:37;5.90;99.90
34873;DHT22;21084;51.098;14.506;2023-12-20T10:38:10;5.90;99.90
34873;DHT22;21084;51.098;14.506;2023-12-20T10:40:40;6.00;99.90
34873;DHT22;21084;51.098;14.506;2023-12-20T10:43:09;6.00;99.90
34873;DHT22;21084;51.098;14.506;2023-12-20T10:45:38;5.90;99.90
34873;DHT22;21084;51.098;14.506;2023-12-20T10:48:07;5.90;99.90
34873;DHT22;21084;51.098;14.506;2023-12-20T10:50:37;5.90;99.90
34873;DHT22;21084;51.098;14.506;2023-12-20T10:53:06;5.90;99.90
34873;DHT22;21084;51.098;14.506;2023-12-20T10:55:35;5.90;99.90
34873;DHT22;21084;51.098;14.506;2023-12-20T10:58:06;5.90;99.90
34873;DHT22;21084;51.098;14.506;2023-12-20T11:00:36;5.90;99.90
34873;DHT22;21084;51.098;14.506;2023-12-20T11:03:08;5.90;99.90
34873;DHT22;21084;51.098;14.506;2023-12-20T11:05:40;5.90;99.90
34873;DHT22;21084;51.098;14.506;2023-12-20T11:08:14;5.90;99.90
34873;DHT22;21084;51.098;14.506;2023-12-20T11:10:48;6.00;99.90
34873;DHT22;21084;51.098;14.506;2023-12-20T11:13:20;6.00;99.90
34873;DHT22;21084;51.098;14.506;2023-12-20T11:15:49;6.00;99.90
34873;DHT22;21084;51.098;14.506;2023-12-20T11:18:18;6.00;99.90
34873;DHT22;21084;51.098;14.506;2023-12-20T11:20:48;6.00;99.90
34873;DHT22;21084;51.098;14.506;2023-12-20T11:23:16;6.00;99.90
34873;DHT22;21084;51.098;14.506;2023-12-20T11:25:48;5.90;99.90
34873;DHT22;21084;51.098;14.506;2023-12-20T11:28:16;6.00;99.90
34873;DHT22;21084;51.098;14.506;2023-12-20T11:30:49;6.00;99.90
34873;DHT22;21084;51.098;14.506;2023-12-20T11:33:21;5.90;99.90
34873;DHT22;21084;51.098;14.506;2023-12-20T11:35:50;6.00;99.90
34873;DHT22;21084;51.098;14.506;2023-12-20T11:38:19;5.90;99.90
34873;DHT22;21084;51.098;14.506;2023-12-20T11:40:48;5.90;99.90
34873;DHT22;21084;51.098;14.506;2023-12-20T11:43:30;6.00;99.90
34873;DHT22;21084;51.098;14.506;2023-12-20T11:46:03;6.00;99.90
34873;DHT22;21084;51.098;14.506;2023-12-20T11:48:34;6.00;99.90
34873;DHT22;21084;51.098;14.506;2023-12-20T11:51:08;6.00;99.90
34873;DHT22;21084;51.098;14.506;2023-12-20T11:53:36;6.00;99.90
34873;DHT22;21084;51.098;14.506;2023-12-20T11:56:05;6.10;99.90
34873;DHT22;21084;51.098;14.506;2023-12-20T11:58:36;6.30;99.90
34873;DHT22;21084;51.098;14.506;2023-12-20T12:01:08;6.10;99.90
34873;DHT22;21084;51.098;14.506;2023-12-20T12:03:37;6.10;99.90
34873;DHT22;21084;51.098;14.506;2023-12-20T12:06:07;6.10;99.90
34873;DHT22;21084;51.098;14.506;2023-12-20T12:08:36;6.10;99.90
34873;DHT22;21084;51.098;14.506;2023-12-20T12:11:05;6.00;99.90
34873;DHT22;21084;51.098;14.506;2023-12-20T12:13:34;6.00;99.90
34873;DHT22;21084;51.098;14.506;2023-12-20T12:16:02;5.90;99.90
34873;DHT22;21084;51.098;14.506;2023-12-20T12:18:31;6.00;99.90
34873;DHT22;21084;51.098;14.506;2023-12-20T12:21:02;6.70;99.90
34873;DHT22;21084;51.098;14.506;2023-12-20T12:23:40;8.40;99.90
34873;DHT22;21084;51.098;14.506;2023-12-20T12:26:09;9.20;99.90
34873;DHT22;21084;51.098;14.506;2023-12-20T12:28:39;10.30;99.90
34873;DHT22;21084;51.098;14.506;2023-12-20T12:31:08;9.50;99.90
34873;DHT22;21084;51.098;14.506;2023-12-20T12:33:38;9.40;99.90
34873;DHT22;21084;51.098;14.506;2023-12-20T12:36:08;9.80;99.90
34873;DHT22;21084;51.098;14.506;2023-12-20T12:38:36;9.80;99.90
34873;DHT22;21084;51.098;14.506;2023-12-20T12:41:06;10.30;98.10
34873;DHT22;21084;51.098;14.506;2023-12-20T12:43:35;9.90;98.30
34873;DHT22;21084;51.098;14.506;2023-12-20T12:46:03;10.20;98.00
34873;DHT22;21084;51.098;14.506;2023-12-20T12:48:32;10.30;97.80
34873;DHT22;21084;51.098;14.506;2023-12-20T12:51:02;10.00;97.50
34873;DHT22;21084;51.098;14.506;2023-12-20T12:53:31;9.90;98.20
34873;DHT22;21084;51.098;14.506;2023-12-20T12:56:00;9.80;98.70
34873;DHT22;21084;51.098;14.506;2023-12-20T12:58:29;9.90;98.70
34873;DHT22;21084;51.098;14.506;2023-12-20T13:00:58;9.50;99.60
34873;DHT22;21084;51.098;14.506;2023-12-20T13:03:27;9.20;99.50
34873;DHT22;21084;51.098;14.506;2023-12-20T13:05:56;9.10;99.90
34873;DHT22;21084;51.098;14.506;2023-12-20T13:08:25;9.10;99.90
34873;DHT22;21084;51.098;14.506;2023-12-20T13:10:54;9.20;99.80
34873;DHT22;21084;51.098;14.506;2023-12-20T13:13:22;9.00;99.90
34873;DHT22;21084;51.098;14.506;2023-12-20T13:15:52;8.90;99.90
34873;DHT22;21084;51.098;14.506;2023-12-20T13:18:22;8.00;99.90
34873;DHT22;21084;51.098;14.506;2023-12-20T13:20:51;7.20;99.90
34873;DHT22;21084;51.098;14.506;2023-12-20T13:23:20;6.90;99.90
34873;DHT22;21084;51.098;14.506;2023-12-20T13:25:48;6.70;99.90
34873;DHT22;21084;51.098;14.506;2023-12-20T13:28:17;6.70;99.90
34873;DHT22;21084;51.098;14.506;2023-12-20T13:30:46;7.30;99.90
34873;DHT22;21084;51.098;14.506;2023-12-20T13:33:15;6.90;99.90
34873;DHT22;21084;51.098;14.506;2023-12-20T13:35:44;6.70;99.90
34873;DHT22;21084;51.098;14.506;2023-12-20T13:38:12;6.60;99.90
34873;DHT22;21084;51.098;14.506;2023-12-20T13:40:45;6.60;99.90
34873;DHT22;21084;51.098;14.506;2023-12-20T13:43:13;6.50;99.90
34873;DHT22;21084;51.098;14.506;2023-12-20T13:45:48;6.40;99.90
34873;DHT22;21084;51.098;14.506;2023-12-20T13:48:20;6.30;99.90
34873;DHT22;21084;51.098;14.506;2023-12-20T13:50:49;6.30;99.90
34873;DHT22;21084;51.098;14.506;2023-12-20T13:53:17;6.20;99.90
34873;DHT22;21084;51.098;14.506;2023-12-20T13:55:46;6.20;99.90
34873;DHT22;21084;51.098;14.506;2023-12-20T13:58:14;6.20;99.90
34873;DHT22;21084;51.098;14.506;2023-12-20T14:00:44;6.20;99.90
34873;DHT22;21084;51.098;14.506;2023-12-20T14:03:12;6.20;99.90
34873;DHT22;21084;51.098;14.506;2023-12-20T14:05:43;6.20;99.90
34873;DHT22;21084;51.098;14.506;2023-12-20T14:08:11;6.20;99.90
34873;DHT22;21084;51.098;14.506;2023-12-20T14:10:40;6.10;99.90
34873;DHT22;21084;51.098;14.506;2023-12-20T14:13:08;6.10;99.90
34873;DHT22;21084;51.098;14.506;2023-12-20T14:15:38;6.10;99.90
34873;DHT22;21084;51.098;14.506;2023-12-20T14:18:06;6.10;99.90
34873;DHT22;21084;51.098;14.506;2023-12-20T14:20:36;6.10;99.90
34873;DHT22;21084;51.098;14.506;2023-12-20T14:23:08;6.10;99.90
34873;DHT22;21084;51.098;14.506;2023-12-20T14:25:36;6.10;99.90
34873;DHT22;21084;51.098;14.506;2023-12-20T14:28:17;6.10;99.90
34873;DHT22;21084;51.098;14.506;2023-12-20T14:30:46;6.00;99.90
34873;DHT22;21084;51.098;14.506;2023-12-20T14:33:16;6.00;99.90
34873;DHT22;21084;51.098;14.506;2023-12-20T14:35:47;6.00;99.90
34873;DHT22;21084;51.098;14.506;2023-12-20T14:38:20;6.00;99.90
34873;DHT22;21084;51.098;14.506;2023-12-20T14:40:49;6.00;99.90
34873;DHT22;21084;51.098;14.506;2023-12-20T14:43:18;6.00;99.90
34873;DHT22;21084;51.098;14.506;2023-12-20T14:45:49;6.00;99.90
34873;DHT22;21084;51.098;14.506;2023-12-20T14:48:19;5.90;99.90
34873;DHT22;21084;51.098;14.506;2023-12-20T14:50:48;5.90;99.90
34873;DHT22;21084;51.098;14.506;2023-12-20T14:53:20;5.90;99.90
34873;DHT22;21084;51.098;14.506;2023-12-20T14:55:49;6.00;99.90
34873;DHT22;21084;51.098;14.506;2023-12-20T14:58:18;5.90;99.90
34873;DHT22;21084;51.098;14.506;2023-12-20T15:00:46;5.90;99.90
34873;DHT22;21084;51.098;14.506;2023-12-20T15:03:17;5.90;99.90
34873;DHT22;21084;51.098;14.506;2023-12-20T15:05:46;5.90;99.90
34873;DHT22;21084;51.098;14.506;2023-12-20T15:08:15;5.80;99.90
34873;DHT22;21084;51.098;14.506;2023-12-20T15:10:45;5.80;99.90
34873;DHT22;21084;51.098;14.506;2023-12-20T15:13:13;5.80;99.90
34873;DHT22;21084;51.098;14.506;2023-12-20T15:15:42;5.80;99.90
34873;DHT22;21084;51.098;14.506;2023-12-20T15:18:13;5.80;99.90
34873;DHT22;21084;51.098;14.506;2023-12-20T15:20:42;5.80;99.90
34873;DHT22;21084;51.098;14.506;2023-12-20T15:23:12;5.70;99.90
34873;DHT22;21084;51.098;14.506;2023-12-20T15:25:40;5.80;99.90
34873;DHT22;21084;51.098;14.506;2023-12-20T15:28:11;5.80;99.90
34873;DHT22;21084;51.098;14.506;2023-12-20T15:30:39;5.80;99.90
34873;DHT22;21084;51.098;14.506;2023-12-20T15:33:08;5.80;99.90
34873;DHT22;21084;51.098;14.506;2023-12-20T15:35:37;5.80;99.90
34873;DHT22;21084;51.098;14.506;2023-12-20T15:38:06;5.80;99.90
34873;DHT22;21084;51.098;14.506;2023-12-20T15:40:34;5.80;99.90
34873;DHT22;21084;51.098;14.506;2023-12-20T15:43:04;5.80;99.90